createdAt,value
2022-08-17T00:02:26.533Z,95.20
2022-08-17T00:04:54.391Z,95.30
2022-08-17T00:07:21.280Z,95.20
2022-08-17T00:09:48.418Z,95.10
2022-08-17T00:12:42.744Z,95.00
2022-08-17T00:15:04.839Z,95.00
2022-08-17T00:17:32.631Z,94.80
2022-08-17T00:20:00.242Z,94.70
2022-08-17T00:22:31.361Z,94.60
2022-08-17T00:25:03.971Z,94.60
2022-08-17T00:27:30.686Z,94.60
2022-08-17T00:29:57.422Z,94.70
2022-08-17T00:33:14.033Z,94.80
2022-08-17T00:35:13.595Z,94.80
2022-08-17T00:37:41.109Z,94.90
2022-08-17T00:40:11.726Z,94.90
2022-08-17T00:42:39.017Z,94.90
2022-08-17T00:45:08.248Z,95.00
2022-08-17T00:47:34.979Z,95.00
2022-08-17T00:50:02.260Z,95.10
2022-08-17T00:52:33.689Z,95.30
2022-08-17T00:55:01.497Z,95.30
2022-08-17T00:57:36.285Z,95.30
2022-08-17T01:00:21.320Z,95.60
2022-08-17T01:02:48.659Z,95.40
2022-08-17T01:05:19.931Z,95.30
2022-08-17T01:07:49.994Z,95.30
2022-08-17T01:10:59.360Z,95.20
2022-08-17T01:13:10.862Z,95.30
2022-08-17T01:15:41.499Z,95.10
2022-08-17T01:18:13.756Z,95.10
2022-08-17T01:20:48.953Z,95.10
2022-08-17T01:23:18.584Z,95.20
2022-08-17T01:25:57.327Z,95.20
2022-08-17T01:28:53.178Z,95.20
2022-08-17T01:31:14.652Z,95.10
2022-08-17T01:33:41.603Z,95.00
2022-08-17T01:36:08.599Z,94.80
2022-08-17T01:38:36.917Z,94.70
2022-08-17T01:41:11.203Z,94.60
2022-08-17T01:43:48.958Z,94.50
2022-08-17T01:46:24.200Z,94.50
2022-08-17T01:48:51.544Z,94.60
2022-08-17T01:51:19.773Z,94.70
2022-08-17T01:53:50.459Z,95.10
2022-08-17T01:56:21.588Z,95.60
2022-08-17T01:58:48.399Z,96.10
2022-08-17T02:01:17.859Z,96.10
2022-08-17T02:03:54.577Z,96.20
2022-08-17T02:06:29.738Z,96.80
2022-08-17T02:09:01.844Z,97.50
2022-08-17T02:11:32.220Z,98.00
2022-08-17T02:14:02.427Z,98.50
2022-08-17T02:16:29.820Z,99.20
2022-08-17T02:19:08.177Z,99.50
2022-08-17T02:21:36.905Z,99.80
2022-08-17T02:24:05.256Z,99.90
2022-08-17T02:26:31.957Z,99.90
2022-08-17T02:28:58.635Z,99.90
2022-08-17T02:31:26.514Z,99.90
2022-08-17T02:33:56.866Z,99.90
2022-08-17T02:36:31.125Z,99.90
2022-08-17T02:38:58.586Z,99.90
2022-08-17T02:41:25.446Z,99.90
2022-08-17T02:43:53.129Z,99.90
2022-08-17T02:46:19.915Z,99.90
2022-08-17T02:48:46.736Z,99.90
2022-08-17T02:51:13.785Z,99.90
2022-08-17T02:53:40.706Z,99.90
2022-08-17T02:56:07.501Z,99.90
2022-08-17T02:58:35.101Z,99.90
2022-08-17T03:01:07.076Z,99.90
2022-08-17T03:03:35.108Z,99.90
2022-08-17T03:06:02.608Z,99.90
2022-08-17T03:08:29.625Z,99.90
2022-08-17T03:10:56.476Z,99.90
2022-08-17T03:13:24.262Z,99.90
2022-08-17T03:15:51.345Z,99.90
2022-08-17T03:18:25.401Z,99.90
2022-08-17T03:20:59.134Z,99.90
2022-08-17T03:23:27.509Z,99.90
2022-08-17T03:25:56.188Z,99.90
2022-08-17T03:28:24.282Z,99.90
2022-08-17T03:30:51.764Z,99.90
2022-08-17T03:33:19.424Z,99.90
2022-08-17T03:35:47.112Z,99.90
2022-08-17T03:38:17.013Z,99.90
2022-08-17T03:40:57.380Z,99.90
2022-08-17T03:43:31.200Z,99.90
2022-08-17T03:46:34.423Z,99.90
2022-08-17T03:49:26.372Z,99.90
2022-08-17T03:52:16.705Z,99.90
2022-08-17T03:55:03.313Z,99.90
2022-08-17T03:57:31.473Z,99.90
2022-08-17T03:59:59.722Z,99.90
2022-08-17T04:02:32.504Z,99.90
2022-08-17T04:04:59.877Z,99.90
2022-08-17T04:07:30.137Z,99.90
2022-08-17T04:09:58.141Z,99.90
2022-08-17T04:12:25.632Z,99.90
2022-08-17T04:14:54.663Z,99.90
2022-08-17T04:17:27.971Z,99.90
2022-08-17T04:19:55.316Z,99.90
2022-08-17T04:22:30.354Z,99.90
2022-08-17T04:25:08.569Z,99.90
2022-08-17T04:27:35.379Z,99.90
2022-08-17T04:30:02.692Z,99.90
2022-08-17T04:33:04.504Z,99.90
2022-08-17T04:35:22.793Z,99.90
2022-08-17T04:37:49.688Z,99.90
2022-08-17T04:40:36.214Z,99.90
2022-08-17T04:43:12.325Z,99.90
2022-08-17T04:45:54.939Z,99.90
2022-08-17T04:48:36.705Z,99.90
2022-08-17T04:51:10.345Z,99.90
2022-08-17T04:53:38.395Z,99.90
2022-08-17T04:56:05.695Z,99.90
2022-08-17T04:58:32.630Z,99.90
2022-08-17T05:00:59.625Z,99.90
2022-08-17T05:03:26.547Z,99.90
2022-08-17T05:05:53.759Z,99.90
2022-08-17T05:08:21.139Z,99.90
2022-08-17T05:10:48.741Z,99.90
2022-08-17T05:13:24.721Z,99.90
2022-08-17T05:15:55.501Z,99.90
2022-08-17T05:18:22.354Z,99.90
2022-08-17T05:20:51.444Z,99.90
2022-08-17T05:23:21.113Z,99.90
2022-08-17T05:25:50.544Z,99.90
2022-08-17T05:28:19.992Z,99.90
2022-08-17T05:30:51.081Z,99.90
2022-08-17T05:33:26.862Z,99.90
2022-08-17T05:35:55.832Z,99.90
2022-08-17T05:38:24.794Z,99.90
2022-08-17T05:40:52.770Z,99.90
2022-08-17T05:43:25.937Z,99.90
2022-08-17T05:46:07.746Z,99.90
2022-08-17T05:48:44.729Z,99.90
2022-08-17T05:51:20.536Z,99.90
2022-08-17T05:53:53.093Z,99.90
2022-08-17T05:56:51.709Z,99.90
2022-08-17T05:59:48.493Z,99.90
2022-08-17T06:02:36.262Z,99.90
2022-08-17T06:05:14.372Z,99.90
2022-08-17T06:08:00.087Z,99.90
2022-08-17T06:11:02.521Z,99.90
2022-08-17T06:13:47.661Z,99.90
2022-08-17T06:16:33.676Z,99.90
2022-08-17T06:19:20.214Z,99.90
2022-08-17T06:21:51.141Z,99.90
2022-08-17T06:24:42.017Z,99.90
2022-08-17T06:27:35.717Z,99.90
2022-08-17T06:30:09.235Z,99.90
2022-08-17T06:32:47.782Z,99.90
2022-08-17T06:35:27.779Z,99.90
2022-08-17T06:38:37.816Z,99.90
2022-08-17T06:41:36.553Z,99.90
2022-08-17T06:44:49.681Z,99.90
2022-08-17T06:47:29.283Z,99.90
2022-08-17T06:50:27.340Z,99.90
2022-08-17T06:53:26.902Z,99.90
2022-08-17T06:56:02.270Z,99.90
2022-08-17T06:58:31.535Z,99.90
2022-08-17T07:01:25.118Z,99.90
2022-08-17T07:04:06.763Z,99.90
2022-08-17T07:06:51.861Z,99.90
2022-08-17T07:09:37.141Z,99.90
2022-08-17T07:12:22.134Z,99.90
2022-08-17T07:15:05.371Z,99.90
2022-08-17T07:17:47.015Z,99.90
2022-08-17T07:20:17.819Z,99.90
2022-08-17T07:23:08.629Z,99.90
2022-08-17T07:25:35.958Z,99.90
2022-08-17T07:28:07.733Z,99.90
2022-08-17T07:30:47.221Z,99.90
2022-08-17T07:33:20.039Z,99.90
2022-08-17T07:35:48.354Z,99.90
2022-08-17T07:38:24.271Z,99.90
2022-08-17T07:41:02.978Z,99.90
2022-08-17T07:43:41.466Z,99.90
2022-08-17T07:46:29.607Z,99.90
2022-08-17T07:49:03.063Z,99.90
2022-08-17T07:51:39.374Z,99.90
2022-08-17T07:54:15.295Z,99.90
2022-08-17T07:56:48.932Z,99.90
2022-08-17T07:59:23.551Z,99.90
2022-08-17T08:01:58.137Z,99.90
2022-08-17T08:05:10.124Z,99.90
2022-08-17T08:07:56.862Z,99.90
2022-08-17T08:10:44.997Z,99.90
2022-08-17T08:13:14.953Z,99.90
2022-08-17T08:15:54.009Z,99.90
2022-08-17T08:18:53.889Z,98.90
2022-08-17T08:21:10.323Z,98.90
2022-08-17T08:23:37.154Z,98.80
2022-08-17T08:26:29.533Z,98.90
2022-08-17T08:29:39.622Z,98.70
2022-08-17T08:32:24.481Z,98.50
2022-08-17T08:35:13.045Z,97.80
2022-08-17T08:38:19.905Z,97.60
2022-08-17T08:40:52.632Z,96.60
2022-08-17T08:43:50.806Z,97.40
2022-08-17T08:46:31.069Z,97.80
2022-08-17T08:49:17.659Z,98.20
2022-08-17T08:51:57.273Z,98.20
2022-08-17T08:54:43.168Z,98.00
2022-08-17T08:57:32.857Z,97.80
2022-08-17T09:00:20.073Z,97.90
2022-08-17T09:03:05.257Z,98.40
2022-08-17T09:05:43.826Z,97.80
2022-08-17T09:08:23.625Z,97.90
2022-08-17T09:11:06.435Z,98.00
2022-08-17T09:13:39.949Z,97.60
2022-08-17T09:16:29.768Z,97.00
2022-08-17T09:19:08.755Z,96.90
2022-08-17T09:21:52.693Z,97.20
2022-08-17T09:24:33.233Z,97.10
2022-08-17T09:27:18.353Z,97.10
2022-08-17T09:29:50.517Z,97.40
2022-08-17T09:32:24.894Z,97.50
2022-08-17T09:34:56.620Z,97.10
2022-08-17T09:37:29.730Z,97.10
2022-08-17T09:40:11.287Z,96.70
2022-08-17T09:42:47.397Z,96.80
2022-08-17T09:45:26.238Z,97.10
2022-08-17T09:48:25.993Z,96.30
2022-08-17T09:51:06.458Z,94.70
2022-08-17T09:53:36.746Z,92.90
2022-08-17T09:56:18.698Z,92.20
2022-08-17T09:59:14.409Z,91.90
2022-08-17T10:01:50.105Z,91.40
2022-08-17T10:04:29.368Z,91.30
2022-08-17T10:07:18.980Z,90.70
2022-08-17T10:10:04.546Z,90.40
2022-08-17T10:12:54.194Z,87.30
2022-08-17T10:15:40.835Z,86.00
2022-08-17T10:18:17.971Z,83.70
2022-08-17T10:21:22.381Z,84.50
2022-08-17T10:24:16.056Z,86.40
2022-08-17T10:26:55.994Z,80.10
2022-08-17T10:29:48.466Z,80.80
2022-08-17T10:32:44.677Z,81.80
2022-08-17T10:35:59.000Z,81.00
2022-08-17T10:38:47.254Z,81.00
2022-08-17T10:41:27.060Z,83.10
2022-08-17T10:44:38.601Z,83.00
2022-08-17T10:47:10.451Z,82.40
2022-08-17T10:49:47.948Z,83.20
2022-08-17T10:52:20.728Z,84.40
2022-08-17T10:54:47.525Z,84.80
2022-08-17T10:57:35.491Z,85.10
2022-08-17T11:00:10.398Z,86.10
2022-08-17T11:02:41.641Z,86.50
2022-08-17T11:05:45.153Z,86.00
2022-08-17T11:08:39.872Z,85.90
2022-08-17T11:11:53.620Z,85.70
2022-08-17T11:14:38.129Z,85.90
2022-08-17T11:17:11.323Z,86.80
2022-08-17T11:19:53.565Z,87.70
2022-08-17T11:22:38.449Z,89.50
2022-08-17T11:25:18.172Z,90.30
2022-08-17T11:27:53.412Z,90.80
2022-08-17T11:30:46.890Z,90.80
2022-08-17T11:33:34.024Z,91.10
2022-08-17T11:36:33.891Z,91.20
2022-08-17T11:39:18.726Z,91.00
2022-08-17T11:41:56.232Z,91.10
2022-08-17T11:44:47.958Z,91.40
2022-08-17T11:48:26.166Z,91.90
2022-08-17T11:51:28.250Z,92.20
2022-08-17T11:54:14.594Z,93.10
2022-08-17T11:56:46.569Z,93.50
2022-08-17T11:59:39.144Z,94.20
2022-08-17T12:02:32.941Z,95.30
2022-08-17T12:05:14.765Z,95.90
2022-08-17T12:08:00.562Z,96.50
2022-08-17T12:10:34.433Z,97.50
2022-08-17T12:13:13.209Z,98.00
2022-08-17T12:15:48.820Z,98.60
2022-08-17T12:18:37.486Z,99.80
2022-08-17T12:21:28.177Z,99.90
2022-08-17T12:24:23.162Z,99.90
2022-08-17T12:27:01.586Z,99.90
2022-08-17T12:29:35.962Z,99.90
2022-08-17T12:32:07.187Z,99.90
2022-08-17T12:34:40.681Z,99.90
2022-08-17T12:37:36.109Z,99.90
2022-08-17T12:40:19.986Z,99.90
2022-08-17T12:43:06.564Z,99.90
2022-08-17T12:45:36.664Z,99.90
2022-08-17T12:48:07.726Z,99.90
2022-08-17T12:50:40.283Z,99.90
2022-08-17T12:53:15.889Z,99.90
2022-08-17T12:55:44.393Z,99.90
2022-08-17T12:58:14.392Z,99.90
2022-08-17T13:00:48.600Z,99.90
2022-08-17T13:03:19.477Z,99.90
2022-08-17T13:05:52.398Z,99.90
2022-08-17T13:08:25.529Z,99.90
2022-08-17T13:11:16.227Z,99.90
2022-08-17T13:13:49.056Z,99.90
2022-08-17T13:16:19.367Z,99.90
2022-08-17T13:19:07.941Z,99.90
2022-08-17T13:21:37.597Z,99.90
2022-08-17T13:24:17.368Z,99.90
2022-08-17T13:26:59.206Z,99.90
2022-08-17T13:29:38.961Z,99.90
2022-08-17T13:32:13.477Z,99.90
2022-08-17T13:35:11.537Z,99.90
2022-08-17T13:37:37.027Z,99.90
2022-08-17T13:40:10.001Z,99.90
2022-08-17T13:42:52.001Z,99.90
2022-08-17T13:45:36.269Z,99.90
2022-08-17T13:48:14.112Z,99.90
2022-08-17T13:50:49.544Z,99.90
2022-08-17T13:53:21.541Z,99.90
2022-08-17T13:55:53.092Z,99.90
2022-08-17T13:58:22.912Z,99.90
2022-08-17T14:00:51.662Z,99.90
2022-08-17T14:03:19.338Z,99.90
2022-08-17T14:05:48.192Z,99.90
2022-08-17T14:08:16.801Z,99.90
2022-08-17T14:10:45.123Z,99.90
2022-08-17T14:13:15.311Z,99.90
2022-08-17T14:15:56.282Z,99.90
2022-08-17T14:18:55.417Z,99.90
2022-08-17T14:21:12.177Z,99.90
2022-08-17T14:23:39.325Z,99.90
2022-08-17T14:26:11.281Z,99.90
2022-08-17T14:28:38.958Z,99.90
2022-08-17T14:31:23.081Z,99.90
2022-08-17T14:33:49.984Z,99.90
2022-08-17T14:36:17.005Z,99.90
2022-08-17T14:38:45.028Z,99.90
2022-08-17T14:41:11.955Z,99.90
2022-08-17T14:43:40.039Z,99.90
2022-08-17T14:46:07.233Z,99.90
2022-08-17T14:48:35.808Z,99.90
2022-08-17T14:51:04.123Z,99.90
2022-08-17T14:53:30.951Z,99.90
2022-08-17T14:55:57.767Z,99.90
2022-08-17T14:58:24.730Z,99.90
2022-08-17T15:00:52.292Z,99.90
2022-08-17T15:03:19.437Z,99.90
2022-08-17T15:05:46.763Z,99.90
2022-08-17T15:08:13.971Z,99.90
2022-08-17T15:10:41.350Z,99.90
2022-08-17T15:13:22.558Z,99.90
2022-08-17T15:15:49.990Z,99.90
2022-08-17T15:18:16.914Z,99.90
2022-08-17T15:20:44.464Z,99.90
2022-08-17T15:23:21.391Z,99.90
2022-08-17T15:25:52.651Z,99.90
2022-08-17T15:28:22.862Z,99.90
2022-08-17T15:30:51.704Z,99.90
2022-08-17T15:33:30.178Z,99.90
2022-08-17T15:36:02.643Z,99.90
2022-08-17T15:38:39.249Z,99.90
2022-08-17T15:41:15.257Z,99.90
2022-08-17T15:43:43.762Z,99.90
2022-08-17T15:46:17.446Z,99.90
2022-08-17T15:48:47.068Z,99.90
2022-08-17T15:51:19.901Z,99.90
2022-08-17T15:54:04.452Z,99.90
2022-08-17T15:56:46.393Z,99.90
2022-08-17T15:59:13.166Z,99.90
2022-08-17T16:03:01.779Z,99.90
2022-08-17T16:04:30.811Z,99.90
2022-08-17T16:06:59.422Z,99.90
2022-08-17T16:09:26.344Z,99.90
2022-08-17T16:12:07.562Z,99.90
2022-08-17T16:15:14.020Z,99.90
2022-08-17T16:17:44.024Z,99.90
2022-08-17T16:20:19.904Z,99.90
2022-08-17T16:22:50.017Z,99.90
2022-08-17T16:25:20.997Z,99.90
2022-08-17T16:27:50.448Z,99.90
2022-08-17T16:30:18.004Z,99.90
2022-08-17T16:32:45.898Z,99.90
2022-08-17T16:35:16.948Z,99.90
2022-08-17T16:37:45.509Z,99.90
2022-08-17T16:40:13.577Z,99.90
2022-08-17T16:42:41.000Z,99.90
2022-08-17T16:45:16.686Z,99.90
2022-08-17T16:47:43.716Z,99.90
2022-08-17T16:51:13.142Z,99.90
2022-08-17T16:53:39.870Z,99.90
2022-08-17T16:56:07.192Z,99.90
2022-08-17T16:58:34.498Z,99.90
2022-08-17T17:01:01.587Z,99.90
2022-08-17T17:03:30.989Z,99.90
2022-08-17T17:06:33.507Z,99.90
2022-08-17T17:09:12.068Z,99.90
2022-08-17T17:11:45.130Z,99.90
2022-08-17T17:14:17.200Z,99.90
2022-08-17T17:16:52.503Z,99.90
2022-08-17T17:19:38.581Z,99.90
2022-08-17T17:22:24.437Z,99.90
2022-08-17T17:25:09.161Z,99.90
2022-08-17T17:27:47.300Z,99.90
2022-08-17T17:30:22.496Z,99.90
2022-08-17T17:33:24.724Z,99.90
2022-08-17T17:35:58.599Z,99.90
2022-08-17T17:38:33.289Z,99.90
2022-08-17T17:41:11.345Z,99.90
2022-08-17T17:43:40.128Z,99.90
2022-08-17T17:46:27.797Z,99.90
2022-08-17T17:48:59.543Z,99.90
2022-08-17T17:52:08.844Z,99.90
2022-08-17T17:54:49.418Z,99.90
2022-08-17T17:57:55.823Z,99.90
2022-08-17T18:00:39.052Z,99.90
2022-08-17T18:03:38.893Z,99.90
2022-08-17T18:06:05.537Z,99.90
2022-08-17T18:08:50.708Z,99.90
2022-08-17T18:11:52.698Z,99.90
2022-08-17T18:14:46.381Z,99.90
2022-08-17T18:17:14.535Z,99.90
2022-08-17T18:19:44.570Z,99.90
2022-08-17T18:22:21.661Z,99.90
2022-08-17T18:24:55.813Z,99.90
2022-08-17T18:27:31.380Z,99.90
2022-08-17T18:30:02.512Z,99.90
2022-08-17T18:32:34.153Z,99.90
2022-08-17T18:35:28.487Z,99.90
2022-08-17T18:38:30.000Z,99.90
2022-08-17T18:40:59.310Z,99.90
2022-08-17T18:43:44.392Z,99.90
2022-08-17T18:46:33.137Z,99.90
2022-08-17T18:49:03.740Z,99.90
2022-08-17T18:51:39.732Z,99.90
2022-08-17T18:54:21.951Z,99.90
2022-08-17T18:56:52.461Z,99.90
2022-08-17T18:59:39.570Z,99.90
2022-08-17T19:02:20.001Z,99.90
2022-08-17T19:05:04.173Z,99.90
2022-08-17T19:07:46.819Z,99.90
2022-08-17T19:10:22.596Z,99.90
2022-08-17T19:13:12.644Z,99.90
2022-08-17T19:16:14.060Z,99.90
2022-08-17T19:18:39.250Z,99.90
2022-08-17T19:21:33.449Z,99.90
2022-08-17T19:24:19.157Z,99.90
2022-08-17T19:26:55.439Z,99.90
2022-08-17T19:29:36.235Z,99.90
2022-08-17T19:32:04.156Z,99.90
2022-08-17T19:34:34.766Z,99.90
2022-08-17T19:37:12.960Z,99.90
2022-08-17T19:39:58.052Z,99.90
2022-08-17T19:42:50.034Z,99.90
2022-08-17T19:45:47.203Z,99.90
2022-08-17T19:48:21.146Z,99.90
2022-08-17T19:51:10.944Z,99.90
2022-08-17T19:54:04.322Z,99.90
2022-08-17T19:56:47.476Z,99.90
2022-08-17T19:59:16.866Z,99.90
2022-08-17T20:01:53.467Z,99.90
2022-08-17T20:04:31.774Z,99.90
2022-08-17T20:07:08.250Z,99.90
2022-08-17T20:09:41.711Z,99.90
2022-08-17T20:12:19.933Z,99.90
2022-08-17T20:14:54.984Z,99.90
2022-08-17T20:17:28.454Z,99.90
2022-08-17T20:20:05.543Z,99.90
2022-08-17T20:22:50.360Z,99.90
2022-08-17T20:25:53.334Z,99.90
2022-08-17T20:28:29.727Z,99.90
2022-08-17T20:30:58.293Z,99.90
2022-08-17T20:33:36.266Z,99.90
2022-08-17T20:36:24.786Z,99.90
2022-08-17T20:38:55.419Z,99.90
2022-08-17T20:41:27.467Z,99.90
2022-08-17T20:43:57.241Z,99.90
2022-08-17T20:46:36.544Z,99.90
2022-08-17T20:49:20.641Z,99.90
2022-08-17T20:52:09.602Z,99.90
2022-08-17T20:55:04.269Z,99.90
2022-08-17T20:57:36.814Z,99.90
2022-08-17T21:00:29.226Z,99.90
2022-08-17T21:03:23.779Z,99.90
2022-08-17T21:05:57.384Z,99.90
2022-08-17T21:08:53.260Z,99.90
2022-08-17T21:11:57.092Z,99.90
2022-08-17T21:14:31.555Z,99.90
2022-08-17T21:17:47.759Z,99.90
2022-08-17T21:20:39.529Z,99.90
2022-08-17T21:23:47.247Z,99.90
2022-08-17T21:26:50.276Z,99.90
2022-08-17T21:29:30.831Z,99.90
2022-08-17T21:31:59.554Z,99.90
2022-08-17T21:34:39.295Z,99.90
2022-08-17T21:37:26.371Z,99.90
2022-08-17T21:39:57.217Z,99.90
2022-08-17T21:42:34.399Z,99.90
2022-08-17T21:45:10.712Z,99.90
2022-08-17T21:47:43.439Z,99.90
2022-08-17T21:50:19.558Z,99.90
2022-08-17T21:52:47.830Z,99.90
2022-08-17T21:55:29.629Z,99.90
2022-08-17T21:58:14.804Z,99.90
2022-08-17T22:00:44.492Z,99.90
2022-08-17T22:03:24.355Z,99.90
2022-08-17T22:05:51.343Z,99.90
2022-08-17T22:08:21.899Z,99.90
2022-08-17T22:10:51.348Z,99.90
2022-08-17T22:13:19.972Z,99.90
2022-08-17T22:16:28.428Z,99.90
2022-08-17T22:18:58.829Z,99.90
2022-08-17T22:21:26.324Z,99.90
2022-08-17T22:24:05.636Z,99.90
2022-08-17T22:27:09.271Z,99.90
2022-08-17T22:29:57.252Z,99.90
2022-08-17T22:32:32.300Z,99.90
2022-08-17T22:35:19.472Z,99.90
2022-08-17T22:37:46.600Z,99.90
2022-08-17T22:40:26.538Z,99.90
2022-08-17T22:42:53.524Z,99.90
2022-08-17T22:45:20.296Z,99.90
2022-08-17T22:47:48.862Z,99.90
2022-08-17T22:50:27.363Z,99.90
2022-08-17T22:53:37.926Z,99.90
2022-08-17T22:56:24.476Z,99.90
2022-08-17T22:59:20.076Z,99.90
2022-08-17T23:02:15.043Z,99.90
2022-08-17T23:04:45.631Z,99.90
2022-08-17T23:07:12.423Z,99.90
2022-08-17T23:09:39.473Z,99.90
2022-08-17T23:12:09.545Z,99.90
2022-08-17T23:14:42.380Z,99.90
2022-08-17T23:17:09.109Z,99.90
2022-08-17T23:19:36.033Z,99.90
2022-08-17T23:22:06.229Z,99.90
2022-08-17T23:24:38.186Z,99.90
2022-08-17T23:27:07.400Z,99.90
2022-08-17T23:29:35.264Z,99.90
2022-08-17T23:32:04.832Z,99.90
2022-08-17T23:34:31.716Z,99.90
2022-08-17T23:36:58.445Z,99.90
2022-08-17T23:39:28.577Z,99.90
2022-08-17T23:41:58.913Z,99.90
2022-08-17T23:44:26.751Z,99.90
2022-08-17T23:46:54.633Z,99.90
2022-08-17T23:49:21.592Z,99.90
2022-08-17T23:51:49.493Z,99.90
2022-08-17T23:54:39.561Z,99.90
2022-08-17T23:57:06.324Z,99.90
2022-08-17T23:59:33.995Z,99.90
